sensor_id;sensor_type;location;lat;lon;timestamp;P1;durP1;ratioP1;P2;durP2;ratioP2
66761;SDS011;53672;48.176;16.338;2022-12-10T00:01:12;16.83;;;7.47;;
66761;SDS011;53672;48.176;16.338;2022-12-10T00:06:15;17.33;;;7.72;;
66761;SDS011;53672;48.176;16.338;2022-12-10T00:11:19;17.60;;;7.82;;
66761;SDS011;53672;48.176;16.338;2022-12-10T00:16:23;19.70;;;8.13;;
66761;SDS011;53672;48.176;16.338;2022-12-10T00:21:25;18.85;;;8.13;;
66761;SDS011;53672;48.176;16.338;2022-12-10T00:26:29;17.30;;;7.80;;
66761;SDS011;53672;48.176;16.338;2022-12-10T00:31:32;19.05;;;8.40;;
66761;SDS011;53672;48.176;16.338;2022-12-10T00:36:34;17.15;;;7.38;;
66761;SDS011;53672;48.176;16.338;2022-12-10T00:41:38;19.70;;;8.33;;
66761;SDS011;53672;48.176;16.338;2022-12-10T00:46:38;17.95;;;8.85;;
66761;SDS011;53672;48.176;16.338;2022-12-10T00:51:39;19.50;;;8.30;;
66761;SDS011;53672;48.176;16.338;2022-12-10T00:56:41;17.07;;;7.30;;
66761;SDS011;53672;48.176;16.338;2022-12-10T01:01:42;20.45;;;9.00;;
66761;SDS011;53672;48.176;16.338;2022-12-10T01:06:44;19.33;;;9.10;;
66761;SDS011;53672;48.176;16.338;2022-12-10T01:11:48;18.38;;;8.57;;
66761;SDS011;53672;48.176;16.338;2022-12-10T01:16:49;19.23;;;8.35;;
66761;SDS011;53672;48.176;16.338;2022-12-10T01:21:53;17.65;;;8.15;;
66761;SDS011;53672;48.176;16.338;2022-12-10T01:26:56;15.75;;;7.72;;
66761;SDS011;53672;48.176;16.338;2022-12-10T01:31:57;18.30;;;8.33;;
66761;SDS011;53672;48.176;16.338;2022-12-10T01:36:57;18.75;;;8.73;;
66761;SDS011;53672;48.176;16.338;2022-12-10T01:41:59;19.37;;;8.43;;
66761;SDS011;53672;48.176;16.338;2022-12-10T01:47:00;17.92;;;7.75;;
66761;SDS011;53672;48.176;16.338;2022-12-10T01:52:01;16.90;;;7.73;;
66761;SDS011;53672;48.176;16.338;2022-12-10T01:57:05;18.40;;;7.93;;
66761;SDS011;53672;48.176;16.338;2022-12-10T02:02:08;16.13;;;7.60;;
66761;SDS011;53672;48.176;16.338;2022-12-10T02:07:17;18.80;;;8.00;;
66761;SDS011;53672;48.176;16.338;2022-12-10T02:12:25;16.03;;;7.60;;
66761;SDS011;53672;48.176;16.338;2022-12-10T02:17:36;18.70;;;7.38;;
66761;SDS011;53672;48.176;16.338;2022-12-10T02:22:42;15.80;;;7.07;;
66761;SDS011;53672;48.176;16.338;2022-12-10T02:27:49;14.93;;;6.78;;
66761;SDS011;53672;48.176;16.338;2022-12-10T02:32:58;15.57;;;7.10;;
66761;SDS011;53672;48.176;16.338;2022-12-10T02:38:03;16.77;;;7.83;;
66761;SDS011;53672;48.176;16.338;2022-12-10T02:43:07;17.30;;;8.32;;
66761;SDS011;53672;48.176;16.338;2022-12-10T02:48:12;16.67;;;7.28;;
66761;SDS011;53672;48.176;16.338;2022-12-10T02:53:13;17.88;;;7.85;;
66761;SDS011;53672;48.176;16.338;2022-12-10T02:58:15;18.37;;;8.03;;
66761;SDS011;53672;48.176;16.338;2022-12-10T03:03:27;18.52;;;8.07;;
66761;SDS011;53672;48.176;16.338;2022-12-10T03:08:37;18.80;;;8.90;;
66761;SDS011;53672;48.176;16.338;2022-12-10T03:13:43;17.10;;;7.88;;
66761;SDS011;53672;48.176;16.338;2022-12-10T03:18:52;18.33;;;8.05;;
66761;SDS011;53672;48.176;16.338;2022-12-10T03:23:56;18.37;;;8.17;;
66761;SDS011;53672;48.176;16.338;2022-12-10T03:28:57;18.43;;;8.23;;
66761;SDS011;53672;48.176;16.338;2022-12-10T03:34:03;17.08;;;7.78;;
66761;SDS011;53672;48.176;16.338;2022-12-10T03:39:05;19.65;;;8.52;;
66761;SDS011;53672;48.176;16.338;2022-12-10T03:44:06;18.73;;;7.93;;
66761;SDS011;53672;48.176;16.338;2022-12-10T03:49:08;20.67;;;9.40;;
66761;SDS011;53672;48.176;16.338;2022-12-10T03:54:09;18.65;;;8.48;;
66761;SDS011;53672;48.176;16.338;2022-12-10T03:59:10;20.07;;;9.37;;
66761;SDS011;53672;48.176;16.338;2022-12-10T04:04:12;19.10;;;9.03;;
66761;SDS011;53672;48.176;16.338;2022-12-10T04:09:13;16.63;;;7.63;;
66761;SDS011;53672;48.176;16.338;2022-12-10T04:14:14;20.13;;;8.97;;
66761;SDS011;53672;48.176;16.338;2022-12-10T04:19:16;19.30;;;8.77;;
66761;SDS011;53672;48.176;16.338;2022-12-10T04:24:20;21.05;;;8.95;;
66761;SDS011;53672;48.176;16.338;2022-12-10T04:29:22;21.15;;;9.13;;
66761;SDS011;53672;48.176;16.338;2022-12-10T04:34:25;19.45;;;8.63;;
66761;SDS011;53672;48.176;16.338;2022-12-10T04:39:26;19.33;;;8.70;;
66761;SDS011;53672;48.176;16.338;2022-12-10T04:44:26;19.87;;;8.50;;
66761;SDS011;53672;48.176;16.338;2022-12-10T04:49:28;22.03;;;10.20;;
66761;SDS011;53672;48.176;16.338;2022-12-10T04:54:29;21.73;;;9.45;;
66761;SDS011;53672;48.176;16.338;2022-12-10T04:59:29;22.30;;;10.10;;
66761;SDS011;53672;48.176;16.338;2022-12-10T05:04:31;20.13;;;9.63;;
66761;SDS011;53672;48.176;16.338;2022-12-10T05:09:32;24.15;;;9.77;;
66761;SDS011;53672;48.176;16.338;2022-12-10T05:14:33;24.40;;;10.17;;
66761;SDS011;53672;48.176;16.338;2022-12-10T05:19:34;23.60;;;10.60;;
66761;SDS011;53672;48.176;16.338;2022-12-10T05:24:35;25.00;;;10.90;;
66761;SDS011;53672;48.176;16.338;2022-12-10T05:29:36;23.83;;;9.93;;
66761;SDS011;53672;48.176;16.338;2022-12-10T05:34:38;22.10;;;10.30;;
66761;SDS011;53672;48.176;16.338;2022-12-10T05:39:38;24.02;;;10.25;;
66761;SDS011;53672;48.176;16.338;2022-12-10T05:44:39;21.97;;;9.37;;
66761;SDS011;53672;48.176;16.338;2022-12-10T05:49:41;26.67;;;10.20;;
66761;SDS011;53672;48.176;16.338;2022-12-10T05:54:41;24.98;;;10.02;;
66761;SDS011;53672;48.176;16.338;2022-12-10T05:59:42;25.00;;;10.70;;
66761;SDS011;53672;48.176;16.338;2022-12-10T06:04:43;24.73;;;10.33;;
66761;SDS011;53672;48.176;16.338;2022-12-10T06:09:44;25.33;;;10.95;;
66761;SDS011;53672;48.176;16.338;2022-12-10T06:14:45;27.35;;;10.75;;
66761;SDS011;53672;48.176;16.338;2022-12-10T06:19:47;24.47;;;10.40;;
66761;SDS011;53672;48.176;16.338;2022-12-10T06:24:48;26.00;;;10.68;;
66761;SDS011;53672;48.176;16.338;2022-12-10T06:29:48;24.23;;;10.23;;
66761;SDS011;53672;48.176;16.338;2022-12-10T06:34:50;22.53;;;9.97;;
66761;SDS011;53672;48.176;16.338;2022-12-10T06:39:51;25.80;;;11.10;;
66761;SDS011;53672;48.176;16.338;2022-12-10T06:44:51;27.60;;;10.90;;
66761;SDS011;53672;48.176;16.338;2022-12-10T06:49:53;24.93;;;10.90;;
66761;SDS011;53672;48.176;16.338;2022-12-10T06:54:54;24.13;;;10.43;;
66761;SDS011;53672;48.176;16.338;2022-12-10T06:59:54;28.53;;;10.87;;
66761;SDS011;53672;48.176;16.338;2022-12-10T07:04:56;25.67;;;11.47;;
66761;SDS011;53672;48.176;16.338;2022-12-10T07:09:56;29.75;;;11.50;;
66761;SDS011;53672;48.176;16.338;2022-12-10T07:14:57;28.77;;;11.57;;
66761;SDS011;53672;48.176;16.338;2022-12-10T07:19:59;28.73;;;11.90;;
66761;SDS011;53672;48.176;16.338;2022-12-10T07:24:59;32.13;;;13.27;;
66761;SDS011;53672;48.176;16.338;2022-12-10T07:30:00;28.20;;;11.83;;
66761;SDS011;53672;48.176;16.338;2022-12-10T07:35:02;31.07;;;12.77;;
66761;SDS011;53672;48.176;16.338;2022-12-10T07:40:03;26.20;;;11.07;;
66761;SDS011;53672;48.176;16.338;2022-12-10T07:45:04;29.52;;;10.68;;
66761;SDS011;53672;48.176;16.338;2022-12-10T07:50:07;28.00;;;11.65;;
66761;SDS011;53672;48.176;16.338;2022-12-10T07:55:08;27.57;;;11.77;;
66761;SDS011;53672;48.176;16.338;2022-12-10T08:00:09;28.90;;;11.23;;
66761;SDS011;53672;48.176;16.338;2022-12-10T08:05:12;29.30;;;11.65;;
66761;SDS011;53672;48.176;16.338;2022-12-10T08:10:12;28.33;;;11.57;;
66761;SDS011;53672;48.176;16.338;2022-12-10T08:15:12;27.43;;;11.43;;
66761;SDS011;53672;48.176;16.338;2022-12-10T08:20:14;27.63;;;11.77;;
66761;SDS011;53672;48.176;16.338;2022-12-10T08:25:15;30.05;;;11.70;;
66761;SDS011;53672;48.176;16.338;2022-12-10T08:30:15;27.65;;;11.45;;
66761;SDS011;53672;48.176;16.338;2022-12-10T08:35:17;29.00;;;10.93;;
66761;SDS011;53672;48.176;16.338;2022-12-10T08:40:18;29.03;;;12.10;;
66761;SDS011;53672;48.176;16.338;2022-12-10T08:45:18;30.52;;;12.07;;
66761;SDS011;53672;48.176;16.338;2022-12-10T08:50:20;32.78;;;12.85;;
66761;SDS011;53672;48.176;16.338;2022-12-10T08:55:21;30.93;;;12.20;;
66761;SDS011;53672;48.176;16.338;2022-12-10T09:00:21;34.00;;;13.87;;
66761;SDS011;53672;48.176;16.338;2022-12-10T09:05:23;31.73;;;12.83;;
66761;SDS011;53672;48.176;16.338;2022-12-10T09:10:23;30.40;;;12.00;;
66761;SDS011;53672;48.176;16.338;2022-12-10T09:15:24;29.67;;;12.03;;
66761;SDS011;53672;48.176;16.338;2022-12-10T09:20:26;30.67;;;12.37;;
66761;SDS011;53672;48.176;16.338;2022-12-10T09:25:26;31.48;;;13.07;;
66761;SDS011;53672;48.176;16.338;2022-12-10T09:30:27;30.33;;;12.97;;
66761;SDS011;53672;48.176;16.338;2022-12-10T09:35:29;29.13;;;12.07;;
66761;SDS011;53672;48.176;16.338;2022-12-10T09:40:32;24.70;;;10.98;;
66761;SDS011;53672;48.176;16.338;2022-12-10T09:45:41;29.17;;;11.93;;
66761;SDS011;53672;48.176;16.338;2022-12-10T09:50:50;27.83;;;11.55;;
66761;SDS011;53672;48.176;16.338;2022-12-10T09:55:55;26.55;;;10.68;;
66761;SDS011;53672;48.176;16.338;2022-12-10T10:00:58;30.50;;;12.98;;
66761;SDS011;53672;48.176;16.338;2022-12-10T10:06:01;27.15;;;11.63;;
66761;SDS011;53672;48.176;16.338;2022-12-10T10:11:03;27.13;;;11.53;;
66761;SDS011;53672;48.176;16.338;2022-12-10T10:16:14;25.58;;;11.27;;
66761;SDS011;53672;48.176;16.338;2022-12-10T10:21:22;29.08;;;12.50;;
66761;SDS011;53672;48.176;16.338;2022-12-10T10:26:25;33.67;;;13.32;;
66761;SDS011;53672;48.176;16.338;2022-12-10T10:31:27;28.77;;;12.35;;
66761;SDS011;53672;48.176;16.338;2022-12-10T10:36:31;27.63;;;12.00;;
66761;SDS011;53672;48.176;16.338;2022-12-10T10:41:34;28.65;;;12.63;;
66761;SDS011;53672;48.176;16.338;2022-12-10T10:46:36;30.33;;;12.13;;
66761;SDS011;53672;48.176;16.338;2022-12-10T10:51:42;29.40;;;12.13;;
66761;SDS011;53672;48.176;16.338;2022-12-10T10:56:44;30.70;;;12.40;;
66761;SDS011;53672;48.176;16.338;2022-12-10T11:01:45;30.27;;;12.10;;
66761;SDS011;53672;48.176;16.338;2022-12-10T11:06:50;29.35;;;12.85;;
66761;SDS011;53672;48.176;16.338;2022-12-10T11:11:57;28.13;;;12.10;;
66761;SDS011;53672;48.176;16.338;2022-12-10T11:17:00;25.08;;;10.98;;
66761;SDS011;53672;48.176;16.338;2022-12-10T11:22:17;28.23;;;11.77;;
66761;SDS011;53672;48.176;16.338;2022-12-10T11:27:31;28.00;;;11.80;;
66761;SDS011;53672;48.176;16.338;2022-12-10T11:32:43;31.90;;;12.93;;
66761;SDS011;53672;48.176;16.338;2022-12-10T11:37:57;29.38;;;11.98;;
66761;SDS011;53672;48.176;16.338;2022-12-10T11:43:09;30.98;;;13.02;;
66761;SDS011;53672;48.176;16.338;2022-12-10T11:48:29;35.23;;;13.77;;
66761;SDS011;53672;48.176;16.338;2022-12-10T11:53:47;33.90;;;13.60;;
66761;SDS011;53672;48.176;16.338;2022-12-10T11:58:57;33.60;;;12.55;;
